createdAt,value
2023-07-24T00:00:36.613Z,100.00
2023-07-24T00:03:24.024Z,100.00
2023-07-24T00:05:51.151Z,100.00
2023-07-24T00:08:17.989Z,100.00
2023-07-24T00:10:45.120Z,100.00
2023-07-24T00:13:12.048Z,100.00
2023-07-24T00:15:40.009Z,100.00
2023-07-24T00:18:06.848Z,100.00
2023-07-24T00:20:34.004Z,100.00
2023-07-24T00:23:00.870Z,100.00
2023-07-24T00:25:28.060Z,100.00
2023-07-24T00:27:55.186Z,100.00
2023-07-24T00:30:22.331Z,100.00
2023-07-24T00:35:16.319Z,100.00
2023-07-24T00:37:43.204Z,100.00
2023-07-24T00:40:10.688Z,100.00
2023-07-24T00:42:37.469Z,100.00
2023-07-24T00:45:05.626Z,100.00
2023-07-24T00:47:32.692Z,100.00
2023-07-24T00:50:00.026Z,100.00
2023-07-24T00:52:27.015Z,100.00
2023-07-24T00:54:54.811Z,100.00
2023-07-24T00:57:21.706Z,100.00
2023-07-24T00:59:48.840Z,100.00
2023-07-24T01:02:15.796Z,100.00
2023-07-24T01:04:43.023Z,100.00
2023-07-24T01:07:10.052Z,100.00
2023-07-24T01:09:37.170Z,100.00
2023-07-24T01:12:33.567Z,100.00
2023-07-24T01:15:15.370Z,100.00
2023-07-24T01:17:49.318Z,100.00
2023-07-24T01:20:18.733Z,100.00
2023-07-24T01:23:08.695Z,100.00
2023-07-24T01:25:37.764Z,100.00
2023-07-24T01:28:09.058Z,100.00
2023-07-24T01:30:36.432Z,100.00
2023-07-24T01:33:03.778Z,100.00
2023-07-24T01:35:33.100Z,100.00
2023-07-24T01:38:01.370Z,100.00
2023-07-24T01:40:28.519Z,100.00
2023-07-24T01:42:55.439Z,100.00
2023-07-24T01:45:25.089Z,100.00
2023-07-24T01:47:51.959Z,100.00
2023-07-24T01:50:19.072Z,100.00
2023-07-24T01:52:46.501Z,100.00
2023-07-24T01:55:13.640Z,100.00
2023-07-24T01:57:40.497Z,100.00
2023-07-24T02:00:08.398Z,100.00
2023-07-24T02:02:35.360Z,100.00
2023-07-24T02:05:02.590Z,100.00
2023-07-24T02:07:29.409Z,100.00
2023-07-24T02:09:56.600Z,100.00
2023-07-24T02:12:23.585Z,100.00
2023-07-24T02:14:52.672Z,100.00
2023-07-24T02:17:19.791Z,100.00
2023-07-24T02:19:46.929Z,100.00
2023-07-24T02:22:13.775Z,100.00
2023-07-24T02:24:40.968Z,100.00
2023-07-24T02:27:07.984Z,100.00
2023-07-24T02:29:35.178Z,100.00
2023-07-24T02:32:02.025Z,100.00
2023-07-24T02:34:29.578Z,100.00
2023-07-24T02:36:56.675Z,100.00
2023-07-24T02:39:23.840Z,100.00
2023-07-24T02:41:50.768Z,100.00
2023-07-24T02:44:17.895Z,100.00
2023-07-24T02:46:44.922Z,100.00
2023-07-24T02:49:12.031Z,100.00
2023-07-24T02:51:38.891Z,100.00
2023-07-24T02:54:07.380Z,100.00
2023-07-24T02:56:34.333Z,100.00
2023-07-24T02:59:01.456Z,100.00
2023-07-24T03:01:28.422Z,100.00
2023-07-24T03:03:55.503Z,100.00
2023-07-24T03:06:22.374Z,100.00
2023-07-24T03:08:49.613Z,100.00
2023-07-24T03:11:16.465Z,100.00
2023-07-24T03:13:44.194Z,100.00
2023-07-24T03:16:11.104Z,100.00
2023-07-24T03:18:38.284Z,100.00
2023-07-24T03:21:05.305Z,100.00
2023-07-24T03:23:32.431Z,100.00
2023-07-24T03:25:59.255Z,100.00
2023-07-24T03:28:26.945Z,100.00
2023-07-24T03:30:54.274Z,100.00
2023-07-24T03:33:22.077Z,100.00
2023-07-24T03:35:48.906Z,100.00
2023-07-24T03:38:16.042Z,100.00
2023-07-24T03:40:43.288Z,100.00
2023-07-24T03:43:10.397Z,100.00
2023-07-24T03:45:37.293Z,100.00
2023-07-24T03:48:04.545Z,100.00
2023-07-24T03:50:31.834Z,100.00
2023-07-24T03:52:59.030Z,100.00
2023-07-24T03:55:25.896Z,100.00
2023-07-24T03:57:53.038Z,100.00
2023-07-24T04:00:19.936Z,100.00
2023-07-24T04:02:48.464Z,100.00
2023-07-24T04:05:15.632Z,100.00
2023-07-24T04:07:42.772Z,100.00
2023-07-24T04:10:10.059Z,100.00
2023-07-24T04:12:37.205Z,100.00
2023-07-24T04:15:04.376Z,100.00
2023-07-24T04:17:31.524Z,100.00
2023-07-24T04:19:58.444Z,100.00
2023-07-24T04:22:26.506Z,100.00
2023-07-24T04:24:53.447Z,100.00
2023-07-24T04:27:20.553Z,100.00
2023-07-24T04:29:47.392Z,100.00
2023-07-24T04:32:14.501Z,100.00
2023-07-24T04:34:41.368Z,100.00
2023-07-24T04:37:08.544Z,100.00
2023-07-24T04:39:35.496Z,100.00
2023-07-24T04:42:02.660Z,100.00
2023-07-24T04:44:29.566Z,100.00
2023-07-24T04:46:57.011Z,100.00
2023-07-24T04:49:24.470Z,100.00
2023-07-24T04:51:52.196Z,100.00
2023-07-24T04:54:19.041Z,100.00
2023-07-24T04:56:46.131Z,100.00
2023-07-24T04:59:13.028Z,100.00
2023-07-24T05:01:40.227Z,100.00
2023-07-24T05:04:07.107Z,100.00
2023-07-24T05:06:36.416Z,100.00
2023-07-24T05:09:03.731Z,100.00
2023-07-24T05:11:30.915Z,100.00
2023-07-24T05:13:57.800Z,100.00
2023-07-24T05:16:24.970Z,100.00
2023-07-24T05:18:51.932Z,100.00
2023-07-24T05:21:19.053Z,100.00
2023-07-24T05:23:45.914Z,100.00
2023-07-24T05:26:13.085Z,100.00
2023-07-24T05:28:39.978Z,100.00
2023-07-24T05:31:07.324Z,100.00
2023-07-24T05:33:34.224Z,100.00
2023-07-24T05:36:05.209Z,100.00
2023-07-24T05:38:32.236Z,100.00
2023-07-24T05:41:00.747Z,100.00
2023-07-24T05:43:28.737Z,100.00
2023-07-24T05:45:57.414Z,100.00
2023-07-24T05:48:25.491Z,100.00
2023-07-24T05:50:53.026Z,100.00
2023-07-24T05:53:20.005Z,100.00
2023-07-24T05:55:47.192Z,100.00
2023-07-24T05:58:14.070Z,100.00
2023-07-24T06:00:41.190Z,100.00
2023-07-24T06:03:08.960Z,100.00
2023-07-24T06:05:36.875Z,100.00
2023-07-24T06:08:03.809Z,100.00
2023-07-24T06:10:30.949Z,100.00
2023-07-24T06:12:57.861Z,100.00
2023-07-24T06:15:24.969Z,100.00
2023-07-24T06:17:54.553Z,100.00
2023-07-24T06:20:22.308Z,100.00
2023-07-24T06:22:49.203Z,100.00
2023-07-24T06:25:16.369Z,100.00
2023-07-24T06:27:43.291Z,100.00
2023-07-24T06:30:15.564Z,100.00
2023-07-24T06:32:43.121Z,100.00
2023-07-24T06:35:10.534Z,100.00
2023-07-24T06:37:37.518Z,100.00
2023-07-24T06:40:05.426Z,100.00
2023-07-24T06:42:32.318Z,100.00
2023-07-24T06:44:59.494Z,100.00
2023-07-24T06:47:26.591Z,100.00
2023-07-24T06:49:53.708Z,100.00
2023-07-24T06:52:20.604Z,100.00
2023-07-24T06:54:47.876Z,100.00
2023-07-24T06:57:14.951Z,100.00
2023-07-24T06:59:42.149Z,100.00
2023-07-24T07:02:09.038Z,100.00
2023-07-24T07:04:36.141Z,100.00
2023-07-24T07:07:03.230Z,100.00
2023-07-24T07:09:30.578Z,100.00
2023-07-24T07:11:57.466Z,100.00
2023-07-24T07:14:24.601Z,100.00
2023-07-24T07:16:51.503Z,100.00
2023-07-24T07:19:18.580Z,100.00
2023-07-24T07:21:45.453Z,100.00
2023-07-24T07:24:12.640Z,100.00
2023-07-24T07:26:39.780Z,100.00
2023-07-24T07:29:07.104Z,100.00
2023-07-24T07:31:34.019Z,100.00
2023-07-24T07:34:01.223Z,100.00
2023-07-24T07:36:28.505Z,100.00
2023-07-24T07:38:55.729Z,100.00
2023-07-24T07:41:22.601Z,100.00
2023-07-24T07:43:49.775Z,100.00
2023-07-24T07:46:16.931Z,100.00
2023-07-24T07:48:44.089Z,99.92
2023-07-24T07:51:10.878Z,99.27
2023-07-24T07:53:38.220Z,98.87
2023-07-24T07:56:05.543Z,96.94
2023-07-24T07:58:32.774Z,94.09
2023-07-24T08:00:59.720Z,94.35
2023-07-24T08:03:26.987Z,92.74
2023-07-24T08:05:58.705Z,93.19
2023-07-24T08:08:26.606Z,91.27
2023-07-24T08:10:53.450Z,90.41
2023-07-24T08:13:20.659Z,89.69
2023-07-24T08:15:47.588Z,88.70
2023-07-24T08:18:15.085Z,86.86
2023-07-24T08:20:42.046Z,86.22
2023-07-24T08:23:09.193Z,84.70
2023-07-24T08:25:36.045Z,83.50
2023-07-24T08:28:06.181Z,86.68
2023-07-24T08:30:35.307Z,85.71
2023-07-24T08:33:02.715Z,84.29
2023-07-24T08:35:30.087Z,84.22
2023-07-24T08:37:57.467Z,82.55
2023-07-24T08:40:24.329Z,83.42
2023-07-24T08:42:54.272Z,80.45
2023-07-24T08:45:21.608Z,82.13
2023-07-24T08:47:49.651Z,78.86
2023-07-24T08:50:18.243Z,77.83
2023-07-24T08:52:47.643Z,75.00
2023-07-24T08:55:14.696Z,75.16
2023-07-24T08:57:41.865Z,74.85
2023-07-24T09:00:09.316Z,75.79
2023-07-24T09:02:37.171Z,75.87
2023-07-24T09:05:05.009Z,72.66
2023-07-24T09:07:32.497Z,74.58
2023-07-24T09:09:59.892Z,71.51
2023-07-24T09:12:26.834Z,68.90
2023-07-24T09:15:08.369Z,68.00
2023-07-24T09:17:35.868Z,67.34
2023-07-24T09:20:04.972Z,68.74
2023-07-24T09:22:32.872Z,66.86
2023-07-24T09:25:04.469Z,64.03
2023-07-24T09:27:32.663Z,64.89
2023-07-24T09:30:00.577Z,64.56
2023-07-24T09:32:28.569Z,63.97
2023-07-24T09:34:56.128Z,64.01
2023-07-24T09:37:31.835Z,62.95
2023-07-24T09:40:00.280Z,63.60
2023-07-24T09:42:44.109Z,61.88
2023-07-24T09:45:23.432Z,59.55
2023-07-24T09:47:56.742Z,60.20
2023-07-24T09:50:27.796Z,59.78
2023-07-24T09:52:56.556Z,59.09
2023-07-24T09:55:30.945Z,57.08
2023-07-24T09:57:59.927Z,56.66
2023-07-24T10:00:28.132Z,56.51
2023-07-24T10:02:55.275Z,55.21
2023-07-24T10:05:22.816Z,54.63
2023-07-24T10:07:50.868Z,52.73
2023-07-24T10:10:18.492Z,51.18
2023-07-24T10:12:45.833Z,48.92
2023-07-24T10:15:13.291Z,49.10
2023-07-24T10:17:43.311Z,48.41
2023-07-24T10:20:12.626Z,45.37
2023-07-24T10:22:43.787Z,46.42
2023-07-24T10:25:12.411Z,47.69
2023-07-24T10:27:50.454Z,49.01
2023-07-24T10:30:33.583Z,48.30
2023-07-24T10:33:31.217Z,47.62
2023-07-24T10:36:07.204Z,46.53
2023-07-24T10:38:40.296Z,43.60
2023-07-24T10:41:09.966Z,45.86
2023-07-24T10:43:49.237Z,46.57
2023-07-24T10:46:21.174Z,47.01
2023-07-24T10:48:50.587Z,46.52
2023-07-24T10:51:18.427Z,45.62
2023-07-24T10:53:49.776Z,45.58
2023-07-24T10:56:18.244Z,45.05
2023-07-24T10:58:45.227Z,44.95
2023-07-24T11:01:12.984Z,42.74
2023-07-24T11:03:42.962Z,42.61
2023-07-24T11:06:15.623Z,43.28
2023-07-24T11:08:43.226Z,43.91
2023-07-24T11:11:10.459Z,41.86
2023-07-24T11:13:39.122Z,41.81
2023-07-24T11:16:08.088Z,41.45
2023-07-24T11:18:54.707Z,43.30
2023-07-24T11:21:24.850Z,40.61
2023-07-24T11:23:54.198Z,41.17
2023-07-24T11:26:26.267Z,42.11
2023-07-24T11:28:54.826Z,42.50
2023-07-24T11:31:22.273Z,42.16
2023-07-24T11:33:51.553Z,42.03
2023-07-24T11:36:18.922Z,40.35
2023-07-24T11:38:47.227Z,39.81
2023-07-24T11:41:15.251Z,39.39
2023-07-24T11:43:50.496Z,39.99
2023-07-24T11:46:28.619Z,39.93
2023-07-24T11:48:58.567Z,40.15
2023-07-24T11:51:28.726Z,39.47
2023-07-24T11:54:12.358Z,38.32
2023-07-24T11:56:39.302Z,37.28
2023-07-24T11:59:13.981Z,36.67
2023-07-24T12:01:41.255Z,36.58
2023-07-24T12:04:08.843Z,37.39
2023-07-24T12:06:36.860Z,37.73
2023-07-24T12:09:06.510Z,36.85
2023-07-24T12:11:34.035Z,36.18
2023-07-24T12:14:01.202Z,36.80
2023-07-24T12:16:29.725Z,35.77
2023-07-24T12:18:56.947Z,36.12
2023-07-24T12:21:23.798Z,36.19
2023-07-24T12:23:50.950Z,36.48
2023-07-24T12:26:17.797Z,36.68
2023-07-24T12:28:44.880Z,36.43
2023-07-24T12:31:11.869Z,36.07
2023-07-24T12:33:39.220Z,36.39
2023-07-24T12:36:06.109Z,37.93
2023-07-24T12:38:33.242Z,36.78
2023-07-24T12:41:00.192Z,38.13
2023-07-24T12:43:27.362Z,38.22
2023-07-24T12:45:54.331Z,37.97
2023-07-24T12:48:22.101Z,38.00
2023-07-24T12:50:49.070Z,37.18
2023-07-24T12:53:17.877Z,37.16
2023-07-24T12:55:50.459Z,36.14
2023-07-24T12:58:17.599Z,36.80
2023-07-24T13:00:44.451Z,37.65
2023-07-24T13:03:11.731Z,37.68
2023-07-24T13:05:39.364Z,38.62
2023-07-24T13:08:06.501Z,38.86
2023-07-24T13:10:33.413Z,39.07
2023-07-24T13:13:02.186Z,38.85
2023-07-24T13:15:30.762Z,37.84
2023-07-24T13:17:58.075Z,37.65
2023-07-24T13:20:26.052Z,37.04
2023-07-24T13:22:53.188Z,37.66
2023-07-24T13:25:20.282Z,37.98
2023-07-24T13:27:47.496Z,36.93
2023-07-24T13:30:14.337Z,36.94
2023-07-24T13:32:41.648Z,37.60
2023-07-24T13:35:08.911Z,38.04
2023-07-24T13:37:36.153Z,37.90
2023-07-24T13:40:03.135Z,38.31
2023-07-24T13:42:30.299Z,39.68
2023-07-24T13:44:57.224Z,38.31
2023-07-24T13:47:24.418Z,37.82
2023-07-24T13:49:51.336Z,38.01
2023-07-24T13:52:18.579Z,38.06
2023-07-24T13:54:45.481Z,37.50
2023-07-24T13:57:14.525Z,36.80
2023-07-24T13:59:41.370Z,36.61
2023-07-24T14:02:08.640Z,36.93
2023-07-24T14:04:35.665Z,37.63
2023-07-24T14:07:02.833Z,39.05
2023-07-24T14:09:29.756Z,39.21
2023-07-24T14:11:57.061Z,39.38
2023-07-24T14:14:24.763Z,39.02
2023-07-24T14:16:52.110Z,37.48
2023-07-24T14:19:19.186Z,38.27
2023-07-24T14:21:46.525Z,37.78
2023-07-24T14:24:13.497Z,38.40
2023-07-24T14:26:40.685Z,38.51
2023-07-24T14:29:07.641Z,38.35
2023-07-24T14:31:35.138Z,37.25
2023-07-24T14:34:02.245Z,37.05
2023-07-24T14:36:34.764Z,36.63
2023-07-24T14:39:02.001Z,36.48
2023-07-24T14:41:29.549Z,35.37
2023-07-24T14:43:56.738Z,35.53
2023-07-24T14:46:23.937Z,36.24
2023-07-24T14:48:50.880Z,37.18
2023-07-24T14:51:17.984Z,36.88
2023-07-24T14:53:44.840Z,36.92
2023-07-24T14:56:12.015Z,37.81
2023-07-24T14:58:38.954Z,37.50
2023-07-24T15:01:06.516Z,36.17
2023-07-24T15:03:33.617Z,35.89
2023-07-24T15:06:04.909Z,35.93
2023-07-24T15:08:32.083Z,35.90
2023-07-24T15:10:59.376Z,36.20
2023-07-24T15:13:26.235Z,35.58
2023-07-24T15:15:53.540Z,36.91
2023-07-24T15:18:20.459Z,37.36
2023-07-24T15:20:47.675Z,37.36
2023-07-24T15:23:14.664Z,37.13
2023-07-24T15:25:41.962Z,37.04
2023-07-24T15:28:10.056Z,35.66
2023-07-24T15:30:37.172Z,34.84
2023-07-24T15:33:04.151Z,34.76
2023-07-24T15:35:31.343Z,34.52
2023-07-24T15:37:58.198Z,35.72
2023-07-24T15:40:25.395Z,34.51
2023-07-24T15:42:52.550Z,34.15
2023-07-24T15:45:19.849Z,34.34
2023-07-24T15:47:46.738Z,35.33
2023-07-24T15:50:13.937Z,36.14
2023-07-24T15:52:40.794Z,37.12
2023-07-24T15:55:08.353Z,36.65
2023-07-24T15:57:35.873Z,37.09
2023-07-24T16:00:03.174Z,37.55
2023-07-24T16:02:30.226Z,36.11
2023-07-24T16:04:57.579Z,36.81
2023-07-24T16:07:24.411Z,36.87
2023-07-24T16:09:51.571Z,37.12
2023-07-24T16:12:18.468Z,36.83
2023-07-24T16:14:45.609Z,37.44
2023-07-24T16:17:12.554Z,38.17
2023-07-24T16:19:40.153Z,38.02
2023-07-24T16:22:07.464Z,38.68
2023-07-24T16:24:35.207Z,38.83
2023-07-24T16:27:05.054Z,38.82
2023-07-24T16:29:33.504Z,39.35
2023-07-24T16:32:00.664Z,39.80
2023-07-24T16:34:29.345Z,40.10
2023-07-24T16:36:57.036Z,40.32
2023-07-24T16:39:24.496Z,41.28
2023-07-24T16:41:52.764Z,41.38
2023-07-24T16:44:19.895Z,41.87
2023-07-24T16:46:46.738Z,42.29
2023-07-24T16:49:13.970Z,42.88
2023-07-24T16:51:40.927Z,43.21
2023-07-24T16:54:08.099Z,44.26
2023-07-24T16:56:34.932Z,43.77
2023-07-24T16:59:02.060Z,43.51
2023-07-24T17:01:29.254Z,43.60
2023-07-24T17:03:58.936Z,44.27
2023-07-24T17:06:26.132Z,44.47
2023-07-24T17:08:53.347Z,44.20
2023-07-24T17:11:20.218Z,44.92
2023-07-24T17:13:48.338Z,45.32
2023-07-24T17:16:15.315Z,44.96
2023-07-24T17:18:42.413Z,45.21
2023-07-24T17:21:09.274Z,45.98
2023-07-24T17:23:36.488Z,46.52
2023-07-24T17:26:03.376Z,46.44
2023-07-24T17:28:30.455Z,46.28
2023-07-24T17:30:57.354Z,47.02
2023-07-24T17:33:26.331Z,47.65
2023-07-24T17:35:53.440Z,47.91
2023-07-24T17:38:20.538Z,47.92
2023-07-24T17:40:47.469Z,48.45
2023-07-24T17:43:14.549Z,48.58
2023-07-24T17:45:41.376Z,49.54
2023-07-24T17:48:08.609Z,49.92
2023-07-24T17:50:36.157Z,49.41
2023-07-24T17:53:03.275Z,50.47
2023-07-24T17:55:30.181Z,50.06
2023-07-24T17:57:57.373Z,50.35
2023-07-24T18:00:24.282Z,50.56
2023-07-24T18:02:51.535Z,51.48
2023-07-24T18:05:18.571Z,51.37
2023-07-24T18:07:45.735Z,51.26
2023-07-24T18:10:12.784Z,51.55
2023-07-24T18:12:40.674Z,51.50
2023-07-24T18:15:08.044Z,51.86
2023-07-24T18:17:35.417Z,52.12
2023-07-24T18:20:02.368Z,52.11
2023-07-24T18:22:29.812Z,52.72
2023-07-24T18:24:56.755Z,52.98
2023-07-24T18:27:24.867Z,53.62
2023-07-24T18:29:51.936Z,53.69
2023-07-24T18:32:19.098Z,53.98
2023-07-24T18:34:46.073Z,54.25
2023-07-24T18:37:13.249Z,54.09
2023-07-24T18:39:40.196Z,54.26
2023-07-24T18:42:08.270Z,54.71
2023-07-24T18:44:35.999Z,55.00
2023-07-24T18:47:03.164Z,55.63
2023-07-24T18:49:30.105Z,55.68
2023-07-24T18:51:57.224Z,56.54
2023-07-24T18:54:24.123Z,56.88
2023-07-24T18:56:52.153Z,56.81
2023-07-24T18:59:19.026Z,57.69
2023-07-24T19:01:46.237Z,57.44
2023-07-24T19:04:13.166Z,58.31
2023-07-24T19:06:40.286Z,58.00
2023-07-24T19:09:07.147Z,58.58
2023-07-24T19:11:34.481Z,59.31
2023-07-24T19:14:01.519Z,59.68
2023-07-24T19:16:28.750Z,60.13
2023-07-24T19:18:55.734Z,60.55
2023-07-24T19:21:22.915Z,60.26
2023-07-24T19:23:49.775Z,60.79
2023-07-24T19:26:16.907Z,61.59
2023-07-24T19:28:43.905Z,61.72
2023-07-24T19:31:11.089Z,62.60
2023-07-24T19:33:37.955Z,62.92
2023-07-24T19:36:05.341Z,63.58
2023-07-24T19:38:32.184Z,64.17
2023-07-24T19:41:02.313Z,64.04
2023-07-24T19:43:29.209Z,64.73
2023-07-24T19:45:56.735Z,64.51
2023-07-24T19:48:25.813Z,65.23
2023-07-24T19:50:57.315Z,65.50
2023-07-24T19:53:25.486Z,65.63
2023-07-24T19:55:53.888Z,66.21
2023-07-24T19:58:32.066Z,66.09
2023-07-24T20:01:00.855Z,66.34
2023-07-24T20:03:28.836Z,67.01
2023-07-24T20:06:06.899Z,66.90
2023-07-24T20:08:35.638Z,66.89
2023-07-24T20:11:08.212Z,67.20
2023-07-24T20:13:36.302Z,67.60
2023-07-24T20:16:03.601Z,67.67
2023-07-24T20:18:30.564Z,68.06
2023-07-24T20:20:57.951Z,67.60
2023-07-24T20:23:24.871Z,67.99
2023-07-24T20:25:52.282Z,68.20
2023-07-24T20:28:21.599Z,68.57
2023-07-24T20:30:48.877Z,68.39
2023-07-24T20:33:16.400Z,68.83
2023-07-24T20:35:47.546Z,69.35
2023-07-24T20:38:28.807Z,69.56
2023-07-24T20:40:56.156Z,70.53
2023-07-24T20:43:23.142Z,69.37
2023-07-24T20:45:51.947Z,70.06
2023-07-24T20:48:19.616Z,69.89
2023-07-24T20:50:47.048Z,70.29
2023-07-24T20:53:14.012Z,69.99
2023-07-24T20:55:41.240Z,70.51
2023-07-24T20:58:08.101Z,70.40
2023-07-24T21:00:35.226Z,69.75
2023-07-24T21:03:02.277Z,69.75
2023-07-24T21:05:29.894Z,69.25
2023-07-24T21:07:59.826Z,68.46
2023-07-24T21:10:27.089Z,69.02
2023-07-24T21:12:53.973Z,68.39
2023-07-24T21:15:21.081Z,68.20
2023-07-24T21:17:48.018Z,68.21
2023-07-24T21:20:15.131Z,66.21
2023-07-24T21:22:42.003Z,66.24
2023-07-24T21:25:09.281Z,66.07
2023-07-24T21:27:36.238Z,65.51
2023-07-24T21:30:03.900Z,68.18
2023-07-24T21:32:32.960Z,69.91
2023-07-24T21:35:00.299Z,70.62
2023-07-24T21:37:27.219Z,70.83
2023-07-24T21:39:54.294Z,71.14
2023-07-24T21:42:21.178Z,70.65
2023-07-24T21:44:48.421Z,69.75
2023-07-24T21:47:15.239Z,70.52
2023-07-24T21:49:42.320Z,71.63
2023-07-24T21:52:09.146Z,71.63
2023-07-24T21:54:38.870Z,72.09
2023-07-24T21:57:07.758Z,71.98
2023-07-24T21:59:34.868Z,70.88
2023-07-24T22:02:01.779Z,70.35
2023-07-24T22:04:29.003Z,70.19
2023-07-24T22:06:56.179Z,70.63
2023-07-24T22:09:23.350Z,71.90
2023-07-24T22:11:50.166Z,70.29
2023-07-24T22:14:17.337Z,65.75
2023-07-24T22:16:44.204Z,66.51
2023-07-24T22:19:11.362Z,64.95
2023-07-24T22:21:38.225Z,63.62
2023-07-24T22:24:05.516Z,62.68
2023-07-24T22:26:32.351Z,63.17
2023-07-24T22:28:59.483Z,61.66
2023-07-24T22:31:26.393Z,62.05
2023-07-24T22:33:53.502Z,61.92
2023-07-24T22:36:20.351Z,63.66
2023-07-24T22:38:47.967Z,64.17
2023-07-24T22:41:15.051Z,62.21
2023-07-24T22:43:42.320Z,62.40
2023-07-24T22:46:09.433Z,64.23
2023-07-24T22:48:36.735Z,64.47
2023-07-24T22:51:03.534Z,64.19
2023-07-24T22:53:30.601Z,64.30
2023-07-24T22:55:57.435Z,65.24
2023-07-24T22:58:25.449Z,65.49
2023-07-24T23:00:52.303Z,63.92
2023-07-24T23:03:19.553Z,63.33
2023-07-24T23:05:46.600Z,62.09
2023-07-24T23:08:13.788Z,62.22
2023-07-24T23:10:40.613Z,61.49
2023-07-24T23:13:07.779Z,61.32
2023-07-24T23:15:34.805Z,61.19
2023-07-24T23:18:02.032Z,61.82
2023-07-24T23:20:28.889Z,60.60
2023-07-24T23:22:56.099Z,60.28
2023-07-24T23:25:22.943Z,61.01
2023-07-24T23:27:50.485Z,62.35
2023-07-24T23:30:17.341Z,64.11
2023-07-24T23:32:44.600Z,65.42
2023-07-24T23:35:11.581Z,64.18
2023-07-24T23:37:38.703Z,65.26
2023-07-24T23:40:06.118Z,65.50
2023-07-24T23:42:33.292Z,65.15
2023-07-24T23:45:00.108Z,65.15
2023-07-24T23:47:27.254Z,64.93
2023-07-24T23:49:54.383Z,64.42
2023-07-24T23:52:21.596Z,64.48
2023-07-24T23:54:48.555Z,63.70
2023-07-24T23:57:15.704Z,64.49
2023-07-24T23:59:42.544Z,64.61
